Time;durP1;ratioP1;P1;durP2;ratioP2;P2;SDS_P1;SDS_P2;PMS_P1;PMS_P2;Temp;Humidity;BMP_temperature;BMP_pressure;BME280_temperature;BME280_humidity;BME280_pressure;Samples;Min_cycle;Max_cycle;Signal;HPM_P1;HPM_P2
2021/09/28 00:02:16;;;;;;;1.50;1.40;;;13.00;99.90;;;;;;5067269;28;20269;-73
2021/09/28 00:04:43;;;;;;;1.30;1.20;;;13.00;99.90;;;;;;5072378;28;20712;-73
2021/09/28 00:07:11;;;;;;;1.97;1.57;;;13.00;99.90;;;;;;5066874;28;20229;-73
2021/09/28 00:09:38;;;;;;;1.37;1.10;;;13.00;99.90;;;;;;5067910;28;20285;-73
2021/09/28 00:12:06;;;;;;;1.00;1.00;;;13.00;99.90;;;;;;5066090;28;20220;-73
2021/09/28 00:14:33;;;;;;;1.30;1.20;;;13.00;99.90;;;;;;5064810;28;20584;-72
2021/09/28 00:17:00;;;;;;;1.03;1.03;;;12.90;99.90;;;;;;5066876;28;20296;-73
2021/09/28 00:19:27;;;;;;;2.63;1.20;;;12.90;99.90;;;;;;5067303;28;20224;-73
2021/09/28 00:21:54;;;;;;;1.20;1.10;;;12.90;99.90;;;;;;5068350;28;20202;-73
2021/09/28 00:24:22;;;;;;;1.30;1.20;;;12.90;99.90;;;;;;5066500;28;20205;-73
2021/09/28 00:26:49;;;;;;;3.33;1.20;;;12.80;99.90;;;;;;5067653;28;20196;-73
2021/09/28 00:29:16;;;;;;;1.27;1.27;;;12.80;99.90;;;;;;5066006;28;20236;-73
2021/09/28 00:31:43;;;;;;;1.13;1.10;;;12.80;99.90;;;;;;5066588;28;20202;-73
2021/09/28 00:34:10;;;;;;;1.13;1.03;;;12.80;99.90;;;;;;5073527;28;20193;-74
2021/09/28 00:36:37;;;;;;;0.80;0.80;;;12.80;99.90;;;;;;5066504;28;20205;-73
2021/09/28 00:39:04;;;;;;;0.80;0.80;;;12.80;99.90;;;;;;5066687;28;20221;-73
2021/09/28 00:41:32;;;;;;;2.27;1.03;;;12.80;99.90;;;;;;5062135;28;20275;-73
2021/09/28 00:43:59;;;;;;;1.03;1.03;;;12.80;99.90;;;;;;5066334;28;20197;-73
2021/09/28 00:46:27;;;;;;;0.80;0.80;;;12.80;99.90;;;;;;5067517;28;20199;-73
2021/09/28 00:48:54;;;;;;;0.87;0.87;;;12.80;99.90;;;;;;5068339;28;20598;-73
2021/09/28 00:51:21;;;;;;;0.87;0.87;;;12.80;99.90;;;;;;5063600;28;20216;-73
2021/09/28 00:53:51;;;;;;;0.90;0.90;;;12.70;99.90;;;;;;5065333;28;20213;-73
2021/09/28 00:56:20;;;;;;;0.90;0.90;;;12.70;99.90;;;;;;5068293;28;20261;-73
2021/09/28 00:58:49;;;;;;;1.30;1.20;;;12.70;99.90;;;;;;5070772;28;20196;-73
2021/09/28 01:01:17;;;;;;;1.20;1.10;;;12.70;99.90;;;;;;5069560;28;20285;-73
2021/09/28 01:03:44;;;;;;;1.07;1.00;;;12.70;99.90;;;;;;5068332;28;20205;-73
2021/09/28 01:06:11;;;;;;;0.83;0.83;;;12.70;99.90;;;;;;5069692;28;20213;-73
2021/09/28 01:08:38;;;;;;;0.87;0.80;;;12.70;99.90;;;;;;5069827;28;20212;-73
2021/09/28 01:11:05;;;;;;;1.10;1.00;;;12.70;99.90;;;;;;5069032;28;20198;-74
2021/09/28 01:13:32;;;;;;;0.97;0.97;;;12.60;99.90;;;;;;5068999;28;20210;-73
2021/09/28 01:16:11;;;;;;;1.00;1.00;;;12.60;99.90;;;;;;5073990;28;20222;-73
2021/09/28 01:18:41;;;;;;;0.83;0.83;;;12.60;99.90;;;;;;5074051;28;20201;-73
2021/09/28 01:21:12;;;;;;;1.20;1.10;;;12.50;99.90;;;;;;5078459;28;20223;-73
2021/09/28 01:23:44;;;;;;;0.83;0.83;;;12.50;99.90;;;;;;5068596;28;20268;-73
2021/09/28 01:26:16;;;;;;;1.27;1.00;;;12.50;99.90;;;;;;5062672;28;20193;-73
2021/09/28 01:28:44;;;;;;;1.00;1.00;;;12.40;99.90;;;;;;5064042;28;20849;-73
2021/09/28 01:31:11;;;;;;;0.87;0.87;;;12.40;99.90;;;;;;5069068;28;20252;-73
2021/09/28 01:33:38;;;;;;;1.00;1.00;;;12.40;99.90;;;;;;5069722;28;20677;-73
2021/09/28 01:36:06;;;;;;;0.97;0.83;;;12.40;99.90;;;;;;5070474;28;20197;-73
2021/09/28 01:38:34;;;;;;;1.10;0.90;;;12.40;99.90;;;;;;5075655;28;20228;-73
2021/09/28 01:41:01;;;;;;;1.10;1.00;;;12.30;99.90;;;;;;5056424;28;20230;-73
2021/09/28 01:43:28;;;;;;;0.90;0.90;;;12.30;99.90;;;;;;5069867;28;20199;-73
2021/09/28 01:45:56;;;;;;;1.30;1.13;;;12.30;99.90;;;;;;5069465;28;20565;-73
2021/09/28 01:48:25;;;;;;;1.00;0.90;;;12.30;99.90;;;;;;5070758;28;20203;-73
2021/09/28 01:50:52;;;;;;;0.90;0.90;;;12.20;99.90;;;;;;5070314;28;20185;-73
2021/09/28 01:53:19;;;;;;;1.10;0.97;;;12.20;99.90;;;;;;5070768;28;20722;-73
2021/09/28 01:55:47;;;;;;;1.00;1.00;;;12.20;99.90;;;;;;5069257;28;20221;-73
2021/09/28 01:58:17;;;;;;;0.73;0.73;;;12.20;99.90;;;;;;5068022;28;20776;-73
2021/09/28 02:00:45;;;;;;;1.10;1.00;;;12.20;99.90;;;;;;5069554;28;20223;-73
2021/09/28 02:03:12;;;;;;;0.87;0.87;;;12.20;99.90;;;;;;5070254;28;20261;-74
2021/09/28 02:05:39;;;;;;;1.00;1.00;;;12.20;99.90;;;;;;5080440;28;20651;-73
2021/09/28 02:08:07;;;;;;;0.73;0.73;;;12.10;99.90;;;;;;5060775;28;20204;-74
2021/09/28 02:10:34;;;;;;;1.27;0.97;;;12.20;99.90;;;;;;5068058;28;20197;-74
2021/09/28 02:13:02;;;;;;;0.90;0.90;;;12.10;99.90;;;;;;5073983;28;20318;-74
2021/09/28 02:15:29;;;;;;;0.93;0.93;;;12.10;99.90;;;;;;5066322;28;20315;-74
2021/09/28 02:17:56;;;;;;;1.37;1.27;;;12.10;99.90;;;;;;5068427;28;20262;-74
2021/09/28 02:20:23;;;;;;;4.53;1.13;;;12.10;99.90;;;;;;5076570;28;20231;-74
2021/09/28 02:22:50;;;;;;;1.03;0.90;;;12.10;99.90;;;;;;5070849;28;20194;-73
2021/09/28 02:25:19;;;;;;;1.43;1.03;;;12.10;99.90;;;;;;5068975;28;20351;-74
2021/09/28 02:27:46;;;;;;;1.40;1.10;;;12.00;99.90;;;;;;5070203;28;20568;-73
2021/09/28 02:30:15;;;;;;;1.23;1.13;;;12.00;99.90;;;;;;5068682;28;20534;-74
2021/09/28 02:32:42;;;;;;;1.13;1.13;;;12.00;99.90;;;;;;5070538;28;20228;-74
2021/09/28 02:35:09;;;;;;;1.40;1.30;;;12.00;99.90;;;;;;5073928;28;20207;-74
2021/09/28 02:37:36;;;;;;;1.30;1.20;;;11.90;99.90;;;;;;5069961;28;20197;-73
2021/09/28 02:40:05;;;;;;;1.10;1.00;;;11.90;99.90;;;;;;5062177;28;20213;-74
2021/09/28 02:42:32;;;;;;;1.03;1.00;;;11.90;99.90;;;;;;5061956;28;20240;-73
2021/09/28 02:44:59;;;;;;;0.97;0.97;;;11.90;99.90;;;;;;5067592;28;20203;-74
2021/09/28 02:47:27;;;;;;;1.10;1.00;;;11.90;99.90;;;;;;5069316;28;20197;-74
2021/09/28 02:49:54;;;;;;;1.33;1.10;;;11.80;99.90;;;;;;5068077;28;20203;-74
2021/09/28 02:52:22;;;;;;;0.70;0.70;;;11.90;99.90;;;;;;5079166;28;20205;-74
2021/09/28 02:54:49;;;;;;;0.90;0.90;;;11.80;99.90;;;;;;5074233;28;20649;-74
2021/09/28 02:57:16;;;;;;;0.93;0.90;;;11.90;99.90;;;;;;5068350;28;20703;-74
2021/09/28 02:59:43;;;;;;;0.80;0.80;;;11.90;99.90;;;;;;5067826;28;20796;-74
2021/09/28 03:02:10;;;;;;;1.20;1.10;;;11.90;99.90;;;;;;5067638;28;20201;-73
2021/09/28 03:04:39;;;;;;;0.90;0.90;;;11.80;99.90;;;;;;5067551;28;20661;-73
2021/09/28 03:07:06;;;;;;;0.90;0.90;;;11.80;99.90;;;;;;5067246;28;20254;-74
2021/09/28 03:09:33;;;;;;;0.80;0.80;;;11.80;99.90;;;;;;5066979;28;20307;-74
2021/09/28 03:12:00;;;;;;;1.20;1.00;;;11.80;99.90;;;;;;5068552;28;20195;-74
2021/09/28 03:14:28;;;;;;;1.00;1.00;;;11.70;99.90;;;;;;5065926;28;20247;-74
2021/09/28 03:16:55;;;;;;;0.90;0.90;;;11.70;99.90;;;;;;5066108;28;20193;-74
2021/09/28 03:19:24;;;;;;;1.37;1.27;;;11.70;99.90;;;;;;5067637;28;20201;-71
2021/09/28 03:21:53;;;;;;;1.00;1.00;;;11.70;99.90;;;;;;5069189;28;20283;-71
2021/09/28 03:24:20;;;;;;;1.10;1.10;;;11.70;99.90;;;;;;5067073;28;20207;-71
2021/09/28 03:26:48;;;;;;;1.37;1.27;;;11.70;99.90;;;;;;5067566;28;20564;-71
2021/09/28 03:29:15;;;;;;;1.20;1.20;;;11.70;99.90;;;;;;5066885;28;20254;-71
2021/09/28 03:31:42;;;;;;;1.27;1.17;;;11.70;99.90;;;;;;5067611;28;20208;-71
2021/09/28 03:34:09;;;;;;;1.70;1.33;;;11.70;99.90;;;;;;5067529;28;20228;-71
2021/09/28 03:36:36;;;;;;;1.80;1.33;;;11.70;99.90;;;;;;5083655;28;20300;-71
2021/09/28 03:39:04;;;;;;;1.20;1.20;;;11.70;99.90;;;;;;5068467;28;20229;-71
2021/09/28 03:41:31;;;;;;;1.50;1.40;;;11.60;99.90;;;;;;5066591;28;20577;-71
2021/09/28 03:43:58;;;;;;;0.90;0.90;;;11.60;99.90;;;;;;5066491;28;20290;-71
2021/09/28 03:46:25;;;;;;;1.70;1.30;;;11.60;99.90;;;;;;5066788;28;20657;-71
2021/09/28 03:48:52;;;;;;;1.17;1.10;;;11.70;99.90;;;;;;5068484;28;20300;-71
2021/09/28 03:51:19;;;;;;;1.40;1.30;;;11.70;99.90;;;;;;5068659;28;20197;-71
2021/09/28 03:53:50;;;;;;;1.20;1.10;;;11.70;99.90;;;;;;5066859;28;20204;-71
2021/09/28 03:56:19;;;;;;;1.30;1.20;;;11.70;99.90;;;;;;5065939;28;20243;-71
2021/09/28 03:58:46;;;;;;;1.03;0.97;;;11.70;99.90;;;;;;5066167;28;20216;-71
2021/09/28 04:01:13;;;;;;;1.10;1.00;;;11.70;99.90;;;;;;5065251;28;20347;-71
2021/09/28 04:03:41;;;;;;;1.83;1.33;;;11.70;99.90;;;;;;5063580;28;20557;-71
2021/09/28 04:06:08;;;;;;;0.93;0.83;;;11.70;99.90;;;;;;5066217;28;20256;-71
2021/09/28 04:08:35;;;;;;;0.70;0.70;;;11.70;99.90;;;;;;5066471;28;20205;-71
2021/09/28 04:11:02;;;;;;;1.00;1.00;;;11.70;99.90;;;;;;5066225;28;20293;-71
2021/09/28 04:13:31;;;;;;;1.20;1.10;;;11.70;99.90;;;;;;5065767;28;20205;-71
2021/09/28 04:15:59;;;;;;;0.90;0.90;;;11.70;99.90;;;;;;5066153;28;20246;-71
2021/09/28 04:18:26;;;;;;;1.30;1.20;;;11.70;99.90;;;;;;5065970;28;20201;-71
2021/09/28 04:20:55;;;;;;;1.33;1.20;;;11.70;99.90;;;;;;5068282;28;20221;-71
2021/09/28 04:23:22;;;;;;;0.90;0.90;;;11.70;99.90;;;;;;5066719;28;20201;-71
2021/09/28 04:25:49;;;;;;;1.57;1.10;;;11.70;99.90;;;;;;5066000;28;20265;-71
2021/09/28 04:28:17;;;;;;;0.93;0.93;;;11.70;99.90;;;;;;5067941;28;20204;-70
2021/09/28 04:30:45;;;;;;;1.40;1.30;;;11.60;99.90;;;;;;5069958;28;20235;-71
2021/09/28 04:33:12;;;;;;;1.30;1.20;;;11.60;99.90;;;;;;5070460;28;20691;-71
2021/09/28 04:35:39;;;;;;;1.33;1.20;;;11.60;99.90;;;;;;5070537;28;20263;-71
2021/09/28 04:38:06;;;;;;;1.20;1.20;;;11.60;99.90;;;;;;5071442;28;20197;-71
2021/09/28 04:40:33;;;;;;;1.60;1.50;;;11.50;99.90;;;;;;5060778;28;20689;-71
2021/09/28 04:43:00;;;;;;;2.50;1.40;;;11.50;99.90;;;;;;5068932;28;20200;-71
2021/09/28 04:45:27;;;;;;;1.60;1.50;;;11.50;99.90;;;;;;5070689;28;20714;-70
2021/09/28 04:47:55;;;;;;;1.17;1.17;;;11.50;99.90;;;;;;5070026;28;20228;-71
2021/09/28 04:50:22;;;;;;;1.47;1.37;;;11.50;99.90;;;;;;5071545;28;20189;-71
2021/09/28 04:52:49;;;;;;;1.90;1.30;;;11.60;99.90;;;;;;5070625;28;20559;-71
2021/09/28 04:55:16;;;;;;;1.40;1.30;;;11.60;99.90;;;;;;5071565;28;20272;-71
2021/09/28 04:57:44;;;;;;;1.37;1.27;;;11.60;99.90;;;;;;5081504;28;20397;-71
2021/09/28 05:00:11;;;;;;;2.17;2.00;;;11.60;99.90;;;;;;5067951;28;20193;-71
2021/09/28 05:02:38;;;;;;;1.37;1.20;;;11.70;99.90;;;;;;5069928;28;20416;-71
2021/09/28 05:05:08;;;;;;;1.30;1.20;;;11.70;99.90;;;;;;5079592;28;20196;-71
2021/09/28 05:07:35;;;;;;;1.30;1.20;;;11.70;99.90;;;;;;5072924;28;20193;-71
2021/09/28 05:10:02;;;;;;;2.40;2.10;;;11.70;99.90;;;;;;5069113;28;20242;-71
2021/09/28 05:12:29;;;;;;;1.70;1.60;;;11.70;99.90;;;;;;5086647;28;20209;-70
2021/09/28 05:14:57;;;;;;;1.20;1.20;;;11.70;99.90;;;;;;5068439;28;20201;-70
2021/09/28 05:17:24;;;;;;;5.07;1.90;;;11.70;99.90;;;;;;5069155;28;20229;-71
2021/09/28 05:19:51;;;;;;;1.67;1.57;;;11.80;99.90;;;;;;5069384;28;20671;-71
2021/09/28 05:22:20;;;;;;;2.13;1.90;;;11.80;99.90;;;;;;5069737;28;20248;-71
2021/09/28 05:24:47;;;;;;;2.00;1.80;;;11.80;99.90;;;;;;5070190;28;20274;-70
2021/09/28 05:27:14;;;;;;;1.50;1.40;;;11.80;99.90;;;;;;5070342;28;20204;-71
2021/09/28 05:29:42;;;;;;;1.13;1.13;;;11.90;99.90;;;;;;5077426;28;20208;-71
2021/09/28 05:32:09;;;;;;;1.30;1.20;;;11.90;99.90;;;;;;5069489;28;20263;-71
2021/09/28 05:34:36;;;;;;;1.20;1.10;;;12.00;99.90;;;;;;5070774;28;20682;-71
2021/09/28 05:37:04;;;;;;;1.40;1.30;;;12.10;99.90;;;;;;5070517;28;20603;-71
2021/09/28 05:39:32;;;;;;;1.17;1.17;;;12.10;99.90;;;;;;5082551;28;20271;-71
2021/09/28 05:41:59;;;;;;;1.40;1.30;;;12.10;99.90;;;;;;5070291;28;20314;-71
2021/09/28 05:44:26;;;;;;;1.20;1.10;;;12.20;99.90;;;;;;5069238;28;20665;-71
2021/09/28 05:46:53;;;;;;;1.57;1.43;;;12.20;99.90;;;;;;5070967;28;20204;-71
2021/09/28 05:49:20;;;;;;;1.10;1.00;;;12.30;99.90;;;;;;5069856;28;20226;-71
2021/09/28 05:51:53;;;;;;;1.60;1.50;;;12.40;99.90;;;;;;5071083;28;20287;-71
2021/09/28 05:54:22;;;;;;;3.33;1.83;;;12.40;99.90;;;;;;5069812;28;20185;-71
2021/09/28 05:56:52;;;;;;;1.87;1.67;;;12.40;99.90;;;;;;5069274;28;20317;-71
2021/09/28 05:59:20;;;;;;;1.83;1.53;;;12.40;99.90;;;;;;5067528;28;20233;-71
2021/09/28 06:01:48;;;;;;;1.40;1.30;;;12.50;99.90;;;;;;5078144;28;20687;-71
2021/09/28 06:04:16;;;;;;;2.27;1.73;;;12.50;99.90;;;;;;5068037;28;20270;-71
2021/09/28 06:06:43;;;;;;;2.13;1.40;;;12.60;99.90;;;;;;5065222;28;20196;-70
2021/09/28 06:09:10;;;;;;;1.80;1.70;;;12.60;99.90;;;;;;5063300;28;20449;-70
2021/09/28 06:11:37;;;;;;;1.80;1.70;;;12.70;99.90;;;;;;5067941;28;20221;-74
2021/09/28 06:14:05;;;;;;;1.73;1.63;;;12.90;99.90;;;;;;5072769;28;20209;-74
2021/09/28 06:16:32;;;;;;;1.77;1.67;;;13.00;99.90;;;;;;5067054;28;20201;-73
2021/09/28 06:18:59;;;;;;;1.53;1.43;;;13.20;99.90;;;;;;5061572;28;20641;-73
2021/09/28 06:21:27;;;;;;;1.60;1.50;;;13.30;99.90;;;;;;5065145;28;20303;-72
2021/09/28 06:23:54;;;;;;;1.00;1.00;;;13.40;99.90;;;;;;5057622;28;20281;-73
2021/09/28 06:26:21;;;;;;;1.93;1.53;;;13.60;99.90;;;;;;5066299;28;20225;-74
2021/09/28 06:28:49;;;;;;;1.33;1.20;;;13.70;99.90;;;;;;5061649;28;20198;-74
2021/09/28 06:31:17;;;;;;;2.07;1.90;;;13.70;99.90;;;;;;5068611;28;20279;-74
2021/09/28 06:33:44;;;;;;;1.83;1.73;;;13.70;99.90;;;;;;5078729;28;20708;-73
2021/09/28 06:36:11;;;;;;;1.97;1.87;;;13.80;99.90;;;;;;5064060;28;20301;-74
2021/09/28 06:38:39;;;;;;;1.97;1.60;;;14.00;99.90;;;;;;5068546;28;20197;-73
2021/09/28 06:41:06;;;;;;;2.10;1.50;;;14.80;99.90;;;;;;5062995;28;20287;-74
2021/09/28 06:43:33;;;;;;;1.70;1.60;;;15.80;99.90;;;;;;5064487;28;20207;-73
2021/09/28 06:46:00;;;;;;;2.27;1.70;;;16.80;99.90;;;;;;5076098;28;20223;-73
2021/09/28 06:48:28;;;;;;;1.40;1.30;;;17.60;99.90;;;;;;5064261;28;20292;-73
2021/09/28 06:50:55;;;;;;;1.53;1.43;;;18.40;99.90;;;;;;5065161;28;20754;-74
2021/09/28 06:53:22;;;;;;;1.70;1.60;;;19.00;99.90;;;;;;5063186;28;20194;-73
2021/09/28 06:55:49;;;;;;;1.43;1.33;;;19.30;97.80;;;;;;5060100;28;20557;-74
2021/09/28 06:58:16;;;;;;;1.80;1.70;;;19.60;97.20;;;;;;5067658;28;20615;-74
2021/09/28 07:00:43;;;;;;;1.53;1.43;;;19.90;95.90;;;;;;5063304;28;20234;-75
2021/09/28 07:03:10;;;;;;;1.70;1.40;;;20.30;95.20;;;;;;5064088;28;20302;-74
2021/09/28 07:05:38;;;;;;;1.60;1.50;;;20.90;94.20;;;;;;5081924;28;20212;-74
2021/09/28 07:08:06;;;;;;;3.15;1.70;;;21.70;93.20;;;;;;5061557;28;20295;-74
2021/09/28 07:10:33;;;;;;;1.95;1.85;;;22.40;91.10;;;;;;5072773;28;20201;-74
2021/09/28 07:13:00;;;;;;;1.60;1.50;;;22.90;89.40;;;;;;5071444;28;20283;-74
2021/09/28 07:15:27;;;;;;;1.80;1.60;;;23.50;86.00;;;;;;5062948;28;20204;-75
2021/09/28 07:17:55;;;;;;;1.80;1.70;;;24.00;82.40;;;;;;5066223;28;20197;-74
2021/09/28 07:20:22;;;;;;;2.28;1.98;;;24.30;79.50;;;;;;5065179;28;20193;-69
2021/09/28 07:22:50;;;;;;;2.00;1.90;;;24.20;77.60;;;;;;5064258;28;20221;-69
2021/09/28 07:25:18;;;;;;;1.83;1.55;;;24.10;76.20;;;;;;5065423;28;20677;-69
2021/09/28 07:27:46;;;;;;;3.55;1.60;;;24.30;74.40;;;;;;5066843;28;20599;-69
2021/09/28 07:30:14;;;;;;;2.03;1.92;;;24.30;72.00;;;;;;5050958;28;21061;-69
2021/09/28 07:32:41;;;;;;;2.95;2.13;;;23.80;70.30;;;;;;5072181;28;20285;-69
2021/09/28 07:35:09;;;;;;;3.03;2.83;;;23.40;70.20;;;;;;5064580;28;20763;-69
2021/09/28 07:37:37;;;;;;;2.55;2.15;;;22.80;70.20;;;;;;5067602;28;20193;-74
2021/09/28 07:40:06;;;;;;;1.77;1.67;;;22.10;71.40;;;;;;5064725;28;20479;-73
2021/09/28 07:42:33;;;;;;;1.80;1.70;;;21.80;73.00;;;;;;5062537;28;20224;-76
2021/09/28 07:45:03;;;;;;;3.40;2.15;;;22.00;73.80;;;;;;5061983;28;20193;-74
2021/09/28 07:47:30;;;;;;;4.80;2.63;;;22.30;73.20;;;;;;5067131;28;21662;-75
2021/09/28 07:49:57;;;;;;;3.20;2.90;;;22.50;72.80;;;;;;5070388;28;20261;-75
2021/09/28 07:52:24;;;;;;;2.85;2.60;;;22.80;72.40;;;;;;5062680;28;20207;-74
2021/09/28 07:54:53;;;;;;;2.58;2.38;;;23.00;71.30;;;;;;5062321;28;20292;-75
2021/09/28 07:57:22;;;;;;;2.65;2.42;;;23.10;70.80;;;;;;5062108;28;21062;-76
2021/09/28 07:59:51;;;;;;;2.67;2.47;;;23.20;70.10;;;;;;5067710;28;20652;-76
2021/09/28 08:02:20;;;;;;;2.75;2.15;;;23.40;70.00;;;;;;5067843;28;20246;-75
2021/09/28 08:04:47;;;;;;;2.33;2.13;;;23.60;69.20;;;;;;5068289;28;20223;-76
2021/09/28 08:07:15;;;;;;;3.80;2.13;;;23.70;68.90;;;;;;5066587;28;20204;-76
2021/09/28 08:09:42;;;;;;;3.13;2.25;;;23.50;67.10;;;;;;5069295;28;20616;-76
2021/09/28 08:12:10;;;;;;;2.08;1.88;;;23.50;68.10;;;;;;5067592;28;20208;-75
2021/09/28 08:14:38;;;;;;;3.53;2.30;;;23.60;67.10;;;;;;5060195;28;20193;-75
2021/09/28 08:17:06;;;;;;;2.33;2.13;;;23.80;66.20;;;;;;5069108;28;20724;-76
2021/09/28 08:19:35;;;;;;;4.68;1.80;;;24.00;65.70;;;;;;5071001;28;20970;-75
2021/09/28 08:22:03;;;;;;;1.70;1.60;;;24.00;65.40;;;;;;5060887;28;20875;-76
2021/09/28 08:24:35;;;;;;;2.35;1.60;;;24.00;65.30;;;;;;5073102;28;20205;-75
2021/09/28 08:29:49;;;;;;;4.68;1.90;;;24.40;64.30;;;;;;5062863;28;20185;-75
2021/09/28 08:32:16;;;;;;;1.80;1.70;;;24.80;63.10;;;;;;5064058;28;20189;-76
2021/09/28 08:34:43;;;;;;;2.78;1.65;;;25.00;62.00;;;;;;5071651;28;20652;-75
2021/09/28 08:37:10;;;;;;;2.25;1.70;;;25.40;61.70;;;;;;5072596;28;20204;-76
2021/09/28 08:39:37;;;;;;;2.17;1.75;;;25.70;60.40;;;;;;5076408;28;20205;-75
2021/09/28 08:42:04;;;;;;;1.45;1.40;;;26.10;60.00;;;;;;5074064;28;20231;-75
2021/09/28 08:44:31;;;;;;;1.65;1.55;;;26.40;59.20;;;;;;5069124;28;20293;-75
2021/09/28 08:47:00;;;;;;;1.70;1.60;;;26.80;58.60;;;;;;5067853;28;20200;-75
2021/09/28 08:49:27;;;;;;;1.90;1.80;;;27.10;58.10;;;;;;5066696;28;20210;-75
2021/09/28 08:51:54;;;;;;;2.90;1.58;;;27.30;57.30;;;;;;5064187;28;20197;-76
2021/09/28 08:54:21;;;;;;;1.98;1.80;;;27.20;56.60;;;;;;5062643;28;20197;-76
2021/09/28 08:56:48;;;;;;;2.90;1.50;;;27.10;56.10;;;;;;5070670;28;20221;-75
2021/09/28 08:59:15;;;;;;;1.35;1.25;;;26.80;56.20;;;;;;5058040;28;20971;-76
2021/09/28 09:01:56;;;;;;;1.30;1.30;;;26.70;56.60;;;;;;5066748;28;20273;-75
2021/09/28 09:04:25;;;;;;;1.55;1.45;;;26.60;56.50;;;;;;5062892;28;20201;-75
2021/09/28 09:06:54;;;;;;;1.65;1.42;;;26.60;55.80;;;;;;5066296;28;20197;-76
2021/09/28 09:09:22;;;;;;;1.42;1.42;;;26.70;55.60;;;;;;5064026;28;20201;-76
2021/09/28 09:11:51;;;;;;;2.78;1.60;;;26.90;54.90;;;;;;5064248;28;20201;-76
2021/09/28 09:14:21;;;;;;;1.60;1.50;;;27.10;54.70;;;;;;5064088;28;20209;-76
2021/09/28 09:16:51;;;;;;;1.65;1.55;;;27.10;53.80;;;;;;5068805;28;20207;-75
2021/09/28 09:19:21;;;;;;;1.60;1.50;;;27.10;53.80;;;;;;5070062;28;20205;-75
2021/09/28 09:21:52;;;;;;;1.60;1.50;;;27.10;53.60;;;;;;5068606;28;20252;-75
2021/09/28 09:24:46;;;;;;;2.08;1.60;;;27.10;53.30;;;;;;5069835;28;20310;-75
2021/09/28 09:27:15;;;;;;;1.70;1.60;;;27.00;53.30;;;;;;5064261;28;20212;-75
2021/09/28 09:29:43;;;;;;;1.63;1.55;;;27.20;53.10;;;;;;5073726;28;20564;-75
2021/09/28 09:32:11;;;;;;;1.80;1.70;;;27.30;52.50;;;;;;5066448;28;20200;-75
2021/09/28 09:34:38;;;;;;;1.98;1.67;;;27.60;52.50;;;;;;5075159;28;20220;-75
2021/09/28 09:37:10;;;;;;;2.17;1.98;;;27.90;52.10;;;;;;5069135;28;20292;-75
2021/09/28 09:39:48;;;;;;;2.40;2.20;;;28.00;51.40;;;;;;5068667;28;21217;-75
2021/09/28 09:42:16;;;;;;;2.10;2.00;;;28.30;51.00;;;;;;5069034;28;20631;-75
2021/09/28 09:44:45;;;;;;;3.08;2.00;;;28.30;50.70;;;;;;5068945;28;20215;-75
2021/09/28 09:47:26;;;;;;;1.80;1.70;;;28.30;50.00;;;;;;5070734;28;20204;-75
2021/09/28 09:50:12;;;;;;;1.65;1.55;;;28.10;49.90;;;;;;5070056;28;20229;-75
2021/09/28 09:53:11;;;;;;;1.60;1.50;;;27.90;50.40;;;;;;5068606;28;20564;-75
2021/09/28 09:55:40;;;;;;;1.70;1.60;;;27.70;50.60;;;;;;4990825;28;20594;-75
2021/09/28 09:58:08;;;;;;;1.88;1.77;;;27.50;50.10;;;;;;4984834;28;20241;-75
2021/09/28 10:00:40;;;;;;;2.00;1.90;;;27.30;50.40;;;;;;4994383;28;20455;-75
2021/09/28 10:03:08;;;;;;;2.90;1.90;;;27.40;50.70;;;;;;4989009;28;20237;-75
2021/09/28 10:05:36;;;;;;;2.88;2.25;;;27.40;50.20;;;;;;4986967;28;20192;-76
2021/09/28 10:08:08;;;;;;;2.75;1.70;;;27.50;50.00;;;;;;4996204;28;20208;-76
2021/09/28 10:10:37;;;;;;;1.50;1.40;;;27.50;50.00;;;;;;4986948;28;20203;-75
2021/09/28 10:13:05;;;;;;;4.55;1.83;;;27.80;50.50;;;;;;4987253;28;20218;-75
2021/09/28 10:15:32;;;;;;;2.30;1.73;;;28.00;49.40;;;;;;4987817;28;20554;-76
2021/09/28 10:18:00;;;;;;;1.65;1.55;;;28.10;48.90;;;;;;4998110;28;20450;-77
2021/09/28 10:20:30;;;;;;;1.50;1.48;;;28.30;48.60;;;;;;4984280;28;20210;-75
2021/09/28 10:22:59;;;;;;;1.45;1.35;;;28.40;48.30;;;;;;5002191;28;20219;-75
2021/09/28 10:25:40;;;;;;;1.67;1.58;;;28.40;48.20;;;;;;4992155;28;20211;-76
2021/09/28 10:28:41;;;;;;;2.05;1.80;;;28.40;47.90;;;;;;4999973;28;20245;-77
2021/09/28 10:31:22;;;;;;;2.53;1.38;;;28.00;47.40;;;;;;4983057;28;20427;-75
2021/09/28 10:33:54;;;;;;;3.08;1.75;;;27.80;47.90;;;;;;5075758;28;20201;-75
2021/09/28 10:36:23;;;;;;;4.03;2.35;;;27.60;47.90;;;;;;5068601;28;20219;-76
2021/09/28 10:39:01;;;;;;;2.50;2.30;;;27.40;47.70;;;;;;5066941;28;20197;-76
2021/09/28 10:41:49;;;;;;;2.72;2.15;;;27.20;48.50;;;;;;5062383;28;20779;-77
2021/09/28 10:44:47;;;;;;;2.00;1.88;;;27.00;48.80;;;;;;5071860;28;20236;-77
2021/09/28 10:47:48;;;;;;;2.63;2.22;;;26.80;49.20;;;;;;5070143;28;20684;-77
2021/09/28 10:50:34;;;;;;;2.30;2.10;;;26.70;49.80;;;;;;5062403;28;20503;-75
2021/09/28 10:53:03;;;;;;;1.98;1.80;;;26.70;49.50;;;;;;5066253;28;20222;-78
2021/09/28 10:55:42;;;;;;;5.90;1.75;;;26.70;49.60;;;;;;5068478;28;20698;-75
2021/09/28 10:58:15;;;;;;;1.50;1.40;;;26.50;49.20;;;;;;5062650;28;20251;-78
2021/09/28 11:01:06;;;;;;;2.40;1.30;;;26.40;49.60;;;;;;5057960;28;20204;-75
2021/09/28 11:04:04;;;;;;;2.05;1.27;;;26.10;49.50;;;;;;5063441;28;20764;-75
2021/09/28 11:07:01;;;;;;;1.45;1.35;;;25.70;50.00;;;;;;5061687;28;20442;-74
2021/09/28 11:09:50;;;;;;;1.55;1.45;;;25.50;50.60;;;;;;4978079;28;20458;-75
2021/09/28 11:12:19;;;;;;;1.33;1.30;;;25.20;50.70;;;;;;4973841;28;20539;-76
2021/09/28 11:14:48;;;;;;;1.33;1.33;;;25.00;50.70;;;;;;4956847;28;20203;-75
2021/09/28 11:17:18;;;;;;;1.67;1.58;;;24.70;51.40;;;;;;4985200;28;20204;-76
2021/09/28 11:19:46;;;;;;;1.38;1.27;;;24.50;51.00;;;;;;4984015;28;20628;-75
2021/09/28 11:22:21;;;;;;;1.50;1.40;;;24.40;51.40;;;;;;4971352;28;20669;-75
2021/09/28 11:24:49;;;;;;;1.80;1.65;;;24.10;51.60;;;;;;4968886;28;20655;-76
2021/09/28 11:27:16;;;;;;;1.80;1.67;;;23.90;51.70;;;;;;4966153;28;20200;-74
2021/09/28 11:29:44;;;;;;;1.80;1.70;;;23.80;52.10;;;;;;4964952;28;20492;-74
2021/09/28 11:32:13;;;;;;;1.85;1.75;;;23.60;52.50;;;;;;4982184;28;20491;-76
2021/09/28 11:34:42;;;;;;;1.67;1.57;;;23.50;52.90;;;;;;4964527;28;20852;-74
2021/09/28 11:37:10;;;;;;;1.88;1.75;;;23.30;53.20;;;;;;4965545;28;20463;-75
2021/09/28 11:39:43;;;;;;;1.33;1.23;;;23.10;53.30;;;;;;4979172;28;20215;-75
2021/09/28 11:42:11;;;;;;;1.52;1.42;;;22.90;53.50;;;;;;4964575;28;20199;-75
2021/09/28 11:44:41;;;;;;;1.60;1.40;;;22.80;53.90;;;;;;4972563;28;20432;-76
2021/09/28 11:47:22;;;;;;;1.23;1.23;;;22.70;54.30;;;;;;5070054;28;20778;-76
2021/09/28 11:49:52;;;;;;;3.22;1.67;;;22.60;54.50;;;;;;5068621;28;20182;-76
2021/09/28 11:52:20;;;;;;;1.48;1.38;;;22.60;54.80;;;;;;5071036;28;20203;-76
2021/09/28 11:54:49;;;;;;;1.90;1.80;;;22.50;55.60;;;;;;5065372;28;20277;-76
2021/09/28 11:57:17;;;;;;;1.20;1.10;;;22.40;55.10;;;;;;5072146;28;20232;-77
2021/09/28 11:59:45;;;;;;;2.50;1.40;;;22.40;55.40;;;;;;5062483;28;20525;-76
2021/09/28 12:02:17;;;;;;;1.73;1.63;;;22.30;55.70;;;;;;5063257;28;20308;-78
2021/09/28 12:05:13;;;;;;;1.50;1.40;;;22.20;55.80;;;;;;5062591;28;20302;-77
2021/09/28 12:10:28;;;;;;;1.75;1.13;;;22.00;56.30;;;;;;5062958;28;20184;-76
2021/09/28 12:12:55;;;;;;;1.48;1.35;;;22.10;56.50;;;;;;5063016;28;20186;-75
2021/09/28 12:15:22;;;;;;;1.73;1.50;;;22.20;56.40;;;;;;5060242;28;20661;-76
2021/09/28 12:17:51;;;;;;;3.38;1.60;;;22.20;56.30;;;;;;5067933;28;20617;-76
2021/09/28 12:20:21;;;;;;;2.63;1.38;;;22.20;56.10;;;;;;5062445;28;20283;-76
2021/09/28 12:22:50;;;;;;;1.63;1.23;;;22.20;56.20;;;;;;5070855;28;20220;-76
2021/09/28 12:25:20;;;;;;;2.28;1.42;;;22.30;56.40;;;;;;5068268;28;20210;-77
2021/09/28 12:27:55;;;;;;;3.13;1.52;;;22.40;56.30;;;;;;5062570;28;20217;-76
2021/09/28 12:30:23;;;;;;;1.52;1.42;;;22.40;56.10;;;;;;5068545;28;20638;-77
2021/09/28 12:32:52;;;;;;;1.70;1.40;;;22.30;56.20;;;;;;5068681;28;20191;-76
2021/09/28 12:35:29;;;;;;;1.50;1.40;;;22.20;56.30;;;;;;5062617;28;20454;-77
2021/09/28 12:38:01;;;;;;;1.27;1.27;;;22.20;56.60;;;;;;5078844;28;20537;-76
2021/09/28 12:40:31;;;;;;;1.50;1.40;;;22.30;56.90;;;;;;5060731;28;20438;-75
2021/09/28 12:43:03;;;;;;;1.50;1.40;;;22.40;56.80;;;;;;5062682;28;20446;-70
2021/09/28 12:45:42;;;;;;;1.80;1.70;;;22.40;56.70;;;;;;5060349;28;21239;-77
2021/09/28 12:48:10;;;;;;;1.70;1.60;;;22.50;56.70;;;;;;5062677;28;20608;-75
2021/09/28 12:50:40;;;;;;;2.10;1.83;;;22.50;56.70;;;;;;5072979;28;20197;-76
2021/09/28 12:53:10;;;;;;;1.85;1.70;;;22.40;56.50;;;;;;5066939;28;20279;-76
2021/09/28 12:55:37;;;;;;;1.65;1.55;;;22.30;56.60;;;;;;5072692;28;20573;-76
2021/09/28 12:58:06;;;;;;;2.75;1.73;;;22.20;56.80;;;;;;5070756;28;20735;-76
2021/09/28 13:00:33;;;;;;;1.50;1.40;;;22.10;57.00;;;;;;5062737;28;20308;-76
2021/09/28 13:03:02;;;;;;;3.05;1.77;;;22.00;57.10;;;;;;5073796;28;20601;-76
2021/09/28 13:05:32;;;;;;;1.77;1.48;;;21.90;57.20;;;;;;5072091;28;20448;-76